createdAt,value
2023-01-13T00:00:22.252Z,49.98
2023-01-13T00:04:22.480Z,49.40
2023-01-13T00:08:25.180Z,48.91
2023-01-13T00:12:25.485Z,50.09
2023-01-13T00:16:25.746Z,49.47
2023-01-13T00:20:26.014Z,48.99
2023-01-13T00:24:29.073Z,49.24
2023-01-13T00:28:29.657Z,49.12
2023-01-13T00:32:31.190Z,48.99
2023-01-13T00:36:33.317Z,49.04
2023-01-13T00:40:36.172Z,49.34
2023-01-13T00:44:36.447Z,49.12
2023-01-13T00:48:38.098Z,49.24
2023-01-13T00:52:39.561Z,49.44
2023-01-13T00:56:43.352Z,49.72
2023-01-13T01:00:43.838Z,50.33
2023-01-13T01:04:44.056Z,49.82
2023-01-13T01:08:45.988Z,50.22
2023-01-13T01:12:48.965Z,50.20
2023-01-13T01:16:49.149Z,50.59
2023-01-13T01:20:49.347Z,50.26
2023-01-13T01:24:51.149Z,49.89
2023-01-13T01:28:54.798Z,50.36
2023-01-13T01:32:55.456Z,50.02
2023-01-13T01:36:55.694Z,50.93
2023-01-13T01:40:55.880Z,50.37
2023-01-13T01:45:05.529Z,49.88
2023-01-13T01:49:15.582Z,50.37
2023-01-13T01:53:23.653Z,50.15
2023-01-13T01:57:32.898Z,49.95
2023-01-13T02:01:37.126Z,49.97
2023-01-13T02:05:39.076Z,49.85
2023-01-13T02:09:40.156Z,50.24
2023-01-13T02:13:40.493Z,50.72
2023-01-13T02:18:05.912Z,50.57
2023-01-13T02:22:47.857Z,50.11
2023-01-13T02:27:34.508Z,49.88
2023-01-13T02:31:43.056Z,49.84
2023-01-13T02:35:53.560Z,50.21
2023-01-13T02:40:01.482Z,49.67
2023-01-13T02:44:07.151Z,49.55
2023-01-13T02:48:14.175Z,49.87
2023-01-13T02:52:22.334Z,49.85
2023-01-13T02:56:26.091Z,49.87
2023-01-13T03:00:27.529Z,49.26
2023-01-13T03:04:55.105Z,49.29
2023-01-13T03:09:06.317Z,49.32
2023-01-13T03:13:23.924Z,49.19
2023-01-13T03:17:34.417Z,49.50
2023-01-13T03:21:51.271Z,49.52
2023-01-13T03:25:59.081Z,49.30
2023-01-13T03:30:05.225Z,49.76
2023-01-13T03:34:12.603Z,50.35
2023-01-13T03:38:21.301Z,49.66
2023-01-13T03:42:26.500Z,50.23
2023-01-13T03:46:49.760Z,50.54
2023-01-13T03:50:55.260Z,50.35
2023-01-13T03:55:04.798Z,50.51
2023-01-13T03:59:08.211Z,50.15
2023-01-13T04:03:14.623Z,49.98
2023-01-13T04:07:26.588Z,50.92
2023-01-13T04:11:38.089Z,51.07
2023-01-13T04:15:42.855Z,51.00
2023-01-13T04:19:43.068Z,50.15
2023-01-13T04:23:43.091Z,50.95
2023-01-13T04:27:45.717Z,50.51
2023-01-13T04:31:45.915Z,50.64
2023-01-13T04:35:48.538Z,50.77
2023-01-13T04:39:49.254Z,50.95
2023-01-13T04:43:51.924Z,50.48
2023-01-13T04:47:52.011Z,50.90
2023-01-13T04:51:52.150Z,50.83
2023-01-13T04:55:52.456Z,50.32
2023-01-13T04:59:55.270Z,50.21
2023-01-13T05:03:55.369Z,50.34
2023-01-13T05:07:55.810Z,50.65
2023-01-13T05:12:08.362Z,50.54
2023-01-13T05:16:26.113Z,50.92
2023-01-13T05:20:27.001Z,51.40
2023-01-13T05:24:39.572Z,51.35
2023-01-13T05:28:39.829Z,51.09
2023-01-13T05:32:42.813Z,51.03
2023-01-13T05:36:42.863Z,51.37
2023-01-13T05:40:57.759Z,50.98
2023-01-13T05:44:58.675Z,51.42
2023-01-13T05:49:01.891Z,51.70
2023-01-13T05:53:01.922Z,51.38
2023-01-13T05:57:02.046Z,51.52
2023-01-13T06:01:08.665Z,51.11
2023-01-13T06:05:12.173Z,51.02
2023-01-13T06:09:12.241Z,51.56
2023-01-13T06:13:12.383Z,51.68
2023-01-13T06:17:15.637Z,51.16
2023-01-13T06:21:18.360Z,50.05
2023-01-13T06:25:29.308Z,50.57
2023-01-13T06:29:29.379Z,50.45
2023-01-13T06:33:35.843Z,50.55
2023-01-13T06:37:40.534Z,49.76
2023-01-13T06:41:53.425Z,49.97
2023-01-13T06:45:57.116Z,50.09
2023-01-13T06:49:57.419Z,49.96
2023-01-13T06:54:00.133Z,50.23
2023-01-13T06:58:01.339Z,50.09
2023-01-13T07:02:01.413Z,49.66
2023-01-13T07:06:02.302Z,49.23
2023-01-13T07:10:05.124Z,49.63
2023-01-13T07:14:17.922Z,49.92
2023-01-13T07:18:18.044Z,49.70
2023-01-13T07:22:18.179Z,50.34
2023-01-13T07:26:20.848Z,50.08
2023-01-13T07:30:21.889Z,50.45
2023-01-13T07:34:21.929Z,50.19
2023-01-13T07:38:21.963Z,49.78
2023-01-13T07:42:37.182Z,49.78
2023-01-13T07:46:37.286Z,49.45
2023-01-13T07:50:37.460Z,48.78
2023-01-13T07:54:40.936Z,48.81
2023-01-13T07:58:44.976Z,48.79
2023-01-13T08:02:45.135Z,49.63
2023-01-13T08:06:45.298Z,48.80
2023-01-13T08:10:45.476Z,48.75
2023-01-13T08:14:50.212Z,49.00
2023-01-13T08:18:50.308Z,49.13
2023-01-13T08:22:50.509Z,48.99
2023-01-13T08:26:50.663Z,48.75
2023-01-13T08:30:54.302Z,48.96
2023-01-13T08:34:54.539Z,48.42
2023-01-13T08:38:54.714Z,48.20
2023-01-13T08:42:55.545Z,48.40
2023-01-13T08:46:59.424Z,47.93
2023-01-13T08:51:06.283Z,49.01
2023-01-13T08:55:07.113Z,48.32
2023-01-13T08:59:10.005Z,48.26
2023-01-13T09:03:12.819Z,48.56
2023-01-13T09:07:13.360Z,48.21
2023-01-13T09:11:34.606Z,48.44
2023-01-13T09:15:34.871Z,48.51
2023-01-13T09:19:37.760Z,50.01
2023-01-13T09:23:37.994Z,50.91
2023-01-13T09:27:38.454Z,50.34
2023-01-13T09:31:38.667Z,50.07
2023-01-13T09:35:42.242Z,49.16
2023-01-13T09:39:42.374Z,49.09
2023-01-13T09:43:58.442Z,48.90
2023-01-13T09:48:05.849Z,48.82
2023-01-13T09:52:16.550Z,49.61
2023-01-13T09:56:17.187Z,49.93
2023-01-13T10:00:27.541Z,49.46
2023-01-13T10:04:29.716Z,48.90
2023-01-13T10:08:37.724Z,49.22
2023-01-13T10:12:51.158Z,48.84
2023-01-13T10:17:03.621Z,48.74
2023-01-13T10:21:22.290Z,48.94
2023-01-13T10:25:52.099Z,50.02
2023-01-13T10:29:52.638Z,51.87
2023-01-13T10:34:01.673Z,53.82
2023-01-13T10:38:02.112Z,55.57
2023-01-13T10:42:15.876Z,56.57
2023-01-13T10:46:19.373Z,58.45
2023-01-13T10:50:29.839Z,58.90
2023-01-13T10:54:31.453Z,57.60
2023-01-13T10:58:34.331Z,60.18
2023-01-13T11:02:37.569Z,61.15
2023-01-13T11:06:38.163Z,62.36
2023-01-13T11:10:49.708Z,62.29
2023-01-13T11:14:54.206Z,63.65
2023-01-13T11:19:12.202Z,63.38
2023-01-13T11:23:25.427Z,63.48
2023-01-13T11:27:41.208Z,63.12
2023-01-13T11:31:53.038Z,63.08
2023-01-13T11:36:08.236Z,62.76
2023-01-13T11:40:17.751Z,62.08
2023-01-13T11:44:25.112Z,61.91
2023-01-13T11:48:31.855Z,60.92
2023-01-13T11:52:57.126Z,60.16
2023-01-13T11:57:47.968Z,60.00
2023-01-13T12:02:17.040Z,58.23
2023-01-13T12:06:33.163Z,58.76
2023-01-13T12:10:54.164Z,59.14
2023-01-13T12:15:38.489Z,60.15
2023-01-13T12:19:39.149Z,60.21
2023-01-13T12:23:49.819Z,59.68
2023-01-13T12:27:58.944Z,59.89
2023-01-13T12:32:00.632Z,59.78
2023-01-13T12:36:11.756Z,59.92
2023-01-13T12:40:38.691Z,59.96
2023-01-13T12:44:38.956Z,58.83
2023-01-13T12:49:05.284Z,57.97
2023-01-13T12:53:39.294Z,58.71
2023-01-13T12:57:42.442Z,57.61
2023-01-13T13:01:42.686Z,57.39
2023-01-13T13:05:57.448Z,57.02
2023-01-13T13:10:05.212Z,55.92
2023-01-13T13:14:14.723Z,55.86
2023-01-13T13:18:31.291Z,55.43
2023-01-13T13:22:53.942Z,55.21
2023-01-13T13:26:54.372Z,53.96
2023-01-13T13:31:23.886Z,54.64
2023-01-13T13:35:58.819Z,54.82
2023-01-13T13:40:12.056Z,55.39
2023-01-13T13:44:32.586Z,55.67
2023-01-13T13:48:35.290Z,57.86
2023-01-13T13:52:43.003Z,58.41
2023-01-13T13:56:47.910Z,58.22
2023-01-13T14:00:51.396Z,57.05
2023-01-13T14:05:10.163Z,56.30
2023-01-13T14:09:20.311Z,56.26
2023-01-13T14:13:25.751Z,54.07
2023-01-13T14:17:29.554Z,52.95
2023-01-13T14:21:33.648Z,53.77
2023-01-13T14:25:39.536Z,54.51
2023-01-13T14:29:40.626Z,53.35
2023-01-13T14:33:46.235Z,54.70
2023-01-13T14:37:54.377Z,54.04
2023-01-13T14:41:54.764Z,54.38
2023-01-13T14:46:02.726Z,53.96
2023-01-13T14:50:08.641Z,53.98
2023-01-13T14:54:49.213Z,53.66
2023-01-13T14:58:49.967Z,54.04
2023-01-13T15:02:53.670Z,52.98
2023-01-13T15:06:57.811Z,52.61
2023-01-13T15:11:02.863Z,52.26
2023-01-13T15:15:03.233Z,52.16
2023-01-13T15:19:03.449Z,52.83
2023-01-13T15:23:04.339Z,52.71
2023-01-13T15:27:20.370Z,52.70
2023-01-13T15:31:21.151Z,53.15
2023-01-13T15:35:22.863Z,53.89
2023-01-13T15:39:23.184Z,53.55
2023-01-13T15:43:39.546Z,53.89
2023-01-13T15:47:39.736Z,53.15
2023-01-13T15:51:40.242Z,52.86
2023-01-13T15:55:42.158Z,52.67
2023-01-13T15:59:44.809Z,52.35
2023-01-13T16:03:44.895Z,53.34
2023-01-13T16:07:45.343Z,52.78
2023-01-13T16:11:45.768Z,53.78
2023-01-13T16:15:52.537Z,53.78
2023-01-13T16:19:53.628Z,54.08
2023-01-13T16:23:55.285Z,55.03
2023-01-13T16:27:56.010Z,54.12
2023-01-13T16:31:58.714Z,55.04
2023-01-13T16:36:10.661Z,55.32
2023-01-13T16:40:26.307Z,54.43
2023-01-13T16:44:26.394Z,54.72
2023-01-13T16:48:29.338Z,54.69
2023-01-13T16:52:29.405Z,54.54
2023-01-13T16:56:33.050Z,54.68
2023-01-13T17:00:34.073Z,53.71
2023-01-13T17:04:36.803Z,53.44
2023-01-13T17:08:36.900Z,53.62
2023-01-13T17:12:37.154Z,53.32
2023-01-13T17:16:37.375Z,53.29
2023-01-13T17:20:40.022Z,53.30
2023-01-13T17:24:40.142Z,54.51
2023-01-13T17:28:40.213Z,53.24
2023-01-13T17:32:40.449Z,52.48
2023-01-13T17:36:43.654Z,52.44
2023-01-13T17:40:43.708Z,52.70
2023-01-13T17:44:43.924Z,52.14
2023-01-13T17:48:44.070Z,52.20
2023-01-13T17:52:46.710Z,52.59
2023-01-13T17:56:47.789Z,51.38
2023-01-13T18:00:48.475Z,51.26
2023-01-13T18:04:48.527Z,51.23
2023-01-13T18:08:51.829Z,51.63
2023-01-13T18:12:51.954Z,51.50
2023-01-13T18:16:52.425Z,51.25
2023-01-13T18:21:05.161Z,50.86
2023-01-13T18:25:27.189Z,51.03
2023-01-13T18:29:27.302Z,52.32
2023-01-13T18:33:27.661Z,51.46
2023-01-13T18:37:28.861Z,52.01
2023-01-13T18:41:56.152Z,52.46
2023-01-13T18:45:59.205Z,52.31
2023-01-13T18:50:00.751Z,52.72
2023-01-13T18:54:01.451Z,52.91
2023-01-13T18:58:04.880Z,53.07
2023-01-13T19:02:09.464Z,54.48
2023-01-13T19:06:14.262Z,53.06
2023-01-13T19:10:16.253Z,53.30
2023-01-13T19:14:34.168Z,54.11
2023-01-13T19:18:34.456Z,53.24
2023-01-13T19:22:37.297Z,53.09
2023-01-13T19:26:37.564Z,52.66
2023-01-13T19:30:40.295Z,52.80
2023-01-13T19:34:40.937Z,52.75
2023-01-13T19:38:41.399Z,52.73
2023-01-13T19:42:53.934Z,53.58
2023-01-13T19:46:56.619Z,53.03
2023-01-13T19:50:56.709Z,53.72
2023-01-13T19:54:57.353Z,52.32
2023-01-13T19:58:57.420Z,52.34
2023-01-13T20:03:03.605Z,52.49
2023-01-13T20:07:03.671Z,52.03
2023-01-13T20:11:16.447Z,52.93
2023-01-13T20:15:17.446Z,52.83
2023-01-13T20:19:20.199Z,53.21
2023-01-13T20:23:20.236Z,53.58
2023-01-13T20:27:20.295Z,52.59
2023-01-13T20:31:20.413Z,53.42
2023-01-13T20:35:24.412Z,52.44
2023-01-13T20:39:27.684Z,52.96
2023-01-13T20:43:27.869Z,53.51
2023-01-13T20:47:28.530Z,52.55
2023-01-13T20:51:31.206Z,52.76
2023-01-13T20:55:33.728Z,53.72
2023-01-13T20:59:33.933Z,53.55
2023-01-13T21:03:34.072Z,53.61
2023-01-13T21:07:37.840Z,53.03
2023-01-13T21:11:51.465Z,53.33
2023-01-13T21:15:52.614Z,53.31
2023-01-13T21:19:53.358Z,52.67
2023-01-13T21:23:56.267Z,52.80
2023-01-13T21:27:59.510Z,52.24
2023-01-13T21:32:00.305Z,52.72
2023-01-13T21:36:06.277Z,52.54
2023-01-13T21:40:13.126Z,52.58
2023-01-13T21:44:31.015Z,52.53
2023-01-13T21:48:31.267Z,53.08
2023-01-13T21:52:31.465Z,53.03
2023-01-13T21:56:34.293Z,52.89
2023-01-13T22:00:35.515Z,53.04
2023-01-13T22:04:36.136Z,52.96
2023-01-13T22:08:38.699Z,52.81
2023-01-13T22:12:41.486Z,52.31
2023-01-13T22:16:49.583Z,51.40
2023-01-13T22:20:49.918Z,51.59
2023-01-13T22:24:52.641Z,50.74
2023-01-13T22:28:55.523Z,51.71
2023-01-13T22:32:56.297Z,50.67
2023-01-13T22:36:56.663Z,51.24
2023-01-13T22:41:00.845Z,51.74
2023-01-13T22:45:03.780Z,51.10
2023-01-13T22:49:03.837Z,51.02
2023-01-13T22:53:03.850Z,50.56
2023-01-13T22:57:03.848Z,51.78
2023-01-13T23:01:19.249Z,51.16
2023-01-13T23:05:19.781Z,51.70
2023-01-13T23:09:19.885Z,51.61
2023-01-13T23:13:19.986Z,51.51
2023-01-13T23:17:22.691Z,51.68
2023-01-13T23:21:26.081Z,52.05
2023-01-13T23:25:26.141Z,52.33
2023-01-13T23:29:26.341Z,51.41
2023-01-13T23:33:29.213Z,50.42
2023-01-13T23:37:29.390Z,52.24
2023-01-13T23:41:30.979Z,52.14
2023-01-13T23:45:31.011Z,52.96
2023-01-13T23:49:33.800Z,53.10
2023-01-13T23:53:35.470Z,52.40
2023-01-13T23:57:35.495Z,52.46
